sensor_id;sensor_type;location;lat;lon;timestamp;temperature;humidity
3069;DHT22;1545;51.728;8.796;2024-02-21T00:00:41;8.60;98.80
3069;DHT22;1545;51.728;8.796;2024-02-21T00:03:07;8.50;98.80
3069;DHT22;1545;51.728;8.796;2024-02-21T00:05:32;8.50;98.80
3069;DHT22;1545;51.728;8.796;2024-02-21T00:08:02;8.60;98.80
3069;DHT22;1545;51.728;8.796;2024-02-21T00:10:28;8.60;98.80
3069;DHT22;1545;51.728;8.796;2024-02-21T00:12:54;8.60;98.80
3069;DHT22;1545;51.728;8.796;2024-02-21T00:15:20;8.60;98.80
3069;DHT22;1545;51.728;8.796;2024-02-21T00:17:46;8.60;98.80
3069;DHT22;1545;51.728;8.796;2024-02-21T00:20:12;8.60;98.80
3069;DHT22;1545;51.728;8.796;2024-02-21T00:22:37;8.60;98.80
3069;DHT22;1545;51.728;8.796;2024-02-21T00:25:03;8.60;98.80
3069;DHT22;1545;51.728;8.796;2024-02-21T00:27:29;8.60;98.80
3069;DHT22;1545;51.728;8.796;2024-02-21T00:29:54;8.60;98.80
3069;DHT22;1545;51.728;8.796;2024-02-21T00:32:19;8.50;98.80
3069;DHT22;1545;51.728;8.796;2024-02-21T00:34:46;8.60;98.80
3069;DHT22;1545;51.728;8.796;2024-02-21T00:37:11;8.60;98.80
3069;DHT22;1545;51.728;8.796;2024-02-21T00:39:37;8.60;98.80
3069;DHT22;1545;51.728;8.796;2024-02-21T00:42:02;8.50;98.80
3069;DHT22;1545;51.728;8.796;2024-02-21T00:44:28;8.60;98.80
3069;DHT22;1545;51.728;8.796;2024-02-21T00:46:53;8.60;98.80
3069;DHT22;1545;51.728;8.796;2024-02-21T00:49:19;8.60;98.80
3069;DHT22;1545;51.728;8.796;2024-02-21T00:51:44;8.60;98.80
3069;DHT22;1545;51.728;8.796;2024-02-21T00:54:10;8.50;98.80
3069;DHT22;1545;51.728;8.796;2024-02-21T00:56:35;8.50;98.80
3069;DHT22;1545;51.728;8.796;2024-02-21T00:59:01;8.50;98.80
3069;DHT22;1545;51.728;8.796;2024-02-21T01:01:26;8.50;98.80
3069;DHT22;1545;51.728;8.796;2024-02-21T01:03:52;8.50;98.80
3069;DHT22;1545;51.728;8.796;2024-02-21T01:06:20;8.50;98.80
3069;DHT22;1545;51.728;8.796;2024-02-21T01:08:47;8.50;98.80
3069;DHT22;1545;51.728;8.796;2024-02-21T01:11:13;8.50;98.80
3069;DHT22;1545;51.728;8.796;2024-02-21T01:13:39;8.50;98.80
3069;DHT22;1545;51.728;8.796;2024-02-21T01:16:05;8.50;98.80
3069;DHT22;1545;51.728;8.796;2024-02-21T01:18:34;8.50;98.80
3069;DHT22;1545;51.728;8.796;2024-02-21T01:21:00;8.60;98.80
3069;DHT22;1545;51.728;8.796;2024-02-21T01:23:25;8.60;98.80
3069;DHT22;1545;51.728;8.796;2024-02-21T01:25:51;8.60;98.80
3069;DHT22;1545;51.728;8.796;2024-02-21T01:28:17;8.60;98.80
3069;DHT22;1545;51.728;8.796;2024-02-21T01:30:43;8.60;98.80
3069;DHT22;1545;51.728;8.796;2024-02-21T01:33:08;8.60;98.80
3069;DHT22;1545;51.728;8.796;2024-02-21T01:35:35;8.60;98.80
3069;DHT22;1545;51.728;8.796;2024-02-21T01:38:01;8.60;98.80
3069;DHT22;1545;51.728;8.796;2024-02-21T01:40:26;8.60;98.80
3069;DHT22;1545;51.728;8.796;2024-02-21T01:42:53;8.60;98.80
3069;DHT22;1545;51.728;8.796;2024-02-21T01:45:20;8.70;98.80
3069;DHT22;1545;51.728;8.796;2024-02-21T01:47:45;8.70;98.80
3069;DHT22;1545;51.728;8.796;2024-02-21T01:50:12;8.70;98.80
3069;DHT22;1545;51.728;8.796;2024-02-21T01:52:38;8.70;98.80
3069;DHT22;1545;51.728;8.796;2024-02-21T01:55:05;8.70;98.80
3069;DHT22;1545;51.728;8.796;2024-02-21T01:57:31;8.70;98.80
3069;DHT22;1545;51.728;8.796;2024-02-21T01:59:56;8.70;98.80
3069;DHT22;1545;51.728;8.796;2024-02-21T02:02:22;8.70;98.80
3069;DHT22;1545;51.728;8.796;2024-02-21T02:04:49;8.70;98.80
3069;DHT22;1545;51.728;8.796;2024-02-21T02:07:14;8.80;98.80
3069;DHT22;1545;51.728;8.796;2024-02-21T02:09:40;8.80;98.80
3069;DHT22;1545;51.728;8.796;2024-02-21T02:12:05;8.80;98.80
3069;DHT22;1545;51.728;8.796;2024-02-21T02:14:31;8.80;98.80
3069;DHT22;1545;51.728;8.796;2024-02-21T02:16:56;8.90;98.80
3069;DHT22;1545;51.728;8.796;2024-02-21T02:19:22;8.90;98.80
3069;DHT22;1545;51.728;8.796;2024-02-21T02:21:50;8.90;98.80
3069;DHT22;1545;51.728;8.796;2024-02-21T02:24:22;8.80;98.80
3069;DHT22;1545;51.728;8.796;2024-02-21T02:26:49;8.80;98.80
3069;DHT22;1545;51.728;8.796;2024-02-21T02:29:14;8.80;98.80
3069;DHT22;1545;51.728;8.796;2024-02-21T02:31:40;8.80;98.80
3069;DHT22;1545;51.728;8.796;2024-02-21T02:34:05;8.70;98.80
3069;DHT22;1545;51.728;8.796;2024-02-21T02:36:34;8.70;98.80
3069;DHT22;1545;51.728;8.796;2024-02-21T02:38:59;8.70;98.80
3069;DHT22;1545;51.728;8.796;2024-02-21T02:41:25;8.70;98.80
3069;DHT22;1545;51.728;8.796;2024-02-21T02:43:50;8.70;98.80
3069;DHT22;1545;51.728;8.796;2024-02-21T02:46:16;8.70;98.80
3069;DHT22;1545;51.728;8.796;2024-02-21T02:48:41;8.70;98.80
3069;DHT22;1545;51.728;8.796;2024-02-21T02:51:07;8.70;98.80
3069;DHT22;1545;51.728;8.796;2024-02-21T02:53:32;8.80;98.80
3069;DHT22;1545;51.728;8.796;2024-02-21T02:55:58;8.80;98.80
3069;DHT22;1545;51.728;8.796;2024-02-21T02:58:23;8.80;98.80
3069;DHT22;1545;51.728;8.796;2024-02-21T03:00:49;8.70;98.80
3069;DHT22;1545;51.728;8.796;2024-02-21T03:03:14;8.70;98.80
3069;DHT22;1545;51.728;8.796;2024-02-21T03:05:40;8.70;98.80
3069;DHT22;1545;51.728;8.796;2024-02-21T03:08:05;8.70;98.80
3069;DHT22;1545;51.728;8.796;2024-02-21T03:10:33;8.70;98.60
3069;DHT22;1545;51.728;8.796;2024-02-21T03:12:58;8.80;98.70
3069;DHT22;1545;51.728;8.796;2024-02-21T03:15:24;8.70;98.50
3069;DHT22;1545;51.728;8.796;2024-02-21T03:17:49;8.70;98.50
3069;DHT22;1545;51.728;8.796;2024-02-21T03:20:15;8.70;98.30
3069;DHT22;1545;51.728;8.796;2024-02-21T03:22:41;8.70;98.30
3069;DHT22;1545;51.728;8.796;2024-02-21T03:25:08;8.70;97.90
3069;DHT22;1545;51.728;8.796;2024-02-21T03:27:33;8.70;98.00
3069;DHT22;1545;51.728;8.796;2024-02-21T03:29:59;8.70;98.20
3069;DHT22;1545;51.728;8.796;2024-02-21T03:32:25;8.70;98.20
3069;DHT22;1545;51.728;8.796;2024-02-21T03:34:50;8.70;98.00
3069;DHT22;1545;51.728;8.796;2024-02-21T03:37:16;8.70;98.00
3069;DHT22;1545;51.728;8.796;2024-02-21T03:39:41;8.70;97.70
3069;DHT22;1545;51.728;8.796;2024-02-21T03:42:07;8.70;97.80
3069;DHT22;1545;51.728;8.796;2024-02-21T03:44:32;8.70;97.50
3069;DHT22;1545;51.728;8.796;2024-02-21T03:47:01;8.70;97.20
3069;DHT22;1545;51.728;8.796;2024-02-21T03:49:27;8.70;97.30
3069;DHT22;1545;51.728;8.796;2024-02-21T03:51:52;8.70;97.20
3069;DHT22;1545;51.728;8.796;2024-02-21T03:54:18;8.70;97.30
3069;DHT22;1545;51.728;8.796;2024-02-21T03:56:44;8.70;97.10
3069;DHT22;1545;51.728;8.796;2024-02-21T03:59:09;8.70;96.80
3069;DHT22;1545;51.728;8.796;2024-02-21T04:01:35;8.70;96.90
3069;DHT22;1545;51.728;8.796;2024-02-21T04:04:01;8.80;96.90
3069;DHT22;1545;51.728;8.796;2024-02-21T04:06:27;8.80;96.70
3069;DHT22;1545;51.728;8.796;2024-02-21T04:08:52;8.80;96.20
3069;DHT22;1545;51.728;8.796;2024-02-21T04:11:18;8.80;95.90
3069;DHT22;1545;51.728;8.796;2024-02-21T04:13:47;8.80;95.70
3069;DHT22;1545;51.728;8.796;2024-02-21T04:16:15;8.80;95.90
3069;DHT22;1545;51.728;8.796;2024-02-21T04:18:41;8.80;95.50
3069;DHT22;1545;51.728;8.796;2024-02-21T04:21:06;8.80;95.10
3069;DHT22;1545;51.728;8.796;2024-02-21T04:23:32;8.80;95.10
3069;DHT22;1545;51.728;8.796;2024-02-21T04:25:57;8.90;95.00
3069;DHT22;1545;51.728;8.796;2024-02-21T04:28:23;8.90;95.10
3069;DHT22;1545;51.728;8.796;2024-02-21T04:30:48;8.80;95.00
3069;DHT22;1545;51.728;8.796;2024-02-21T04:33:14;8.90;94.60
3069;DHT22;1545;51.728;8.796;2024-02-21T04:35:39;8.80;94.70
3069;DHT22;1545;51.728;8.796;2024-02-21T04:38:05;8.80;94.70
3069;DHT22;1545;51.728;8.796;2024-02-21T04:40:30;8.90;94.80
3069;DHT22;1545;51.728;8.796;2024-02-21T04:42:56;8.90;94.70
3069;DHT22;1545;51.728;8.796;2024-02-21T04:45:22;8.80;94.70
3069;DHT22;1545;51.728;8.796;2024-02-21T04:47:47;8.80;94.60
3069;DHT22;1545;51.728;8.796;2024-02-21T04:50:13;8.80;94.80
3069;DHT22;1545;51.728;8.796;2024-02-21T04:52:38;8.80;94.80
3069;DHT22;1545;51.728;8.796;2024-02-21T04:55:04;8.80;94.90
3069;DHT22;1545;51.728;8.796;2024-02-21T04:57:29;8.80;94.90
3069;DHT22;1545;51.728;8.796;2024-02-21T04:59:55;8.80;94.70
3069;DHT22;1545;51.728;8.796;2024-02-21T05:02:20;8.80;94.50
3069;DHT22;1545;51.728;8.796;2024-02-21T05:04:47;8.70;94.70
3069;DHT22;1545;51.728;8.796;2024-02-21T05:07:13;8.80;95.00
3069;DHT22;1545;51.728;8.796;2024-02-21T05:09:38;8.80;94.80
3069;DHT22;1545;51.728;8.796;2024-02-21T05:12:04;8.80;94.50
3069;DHT22;1545;51.728;8.796;2024-02-21T05:14:30;8.70;94.90
3069;DHT22;1545;51.728;8.796;2024-02-21T05:16:55;8.70;94.90
3069;DHT22;1545;51.728;8.796;2024-02-21T05:19:21;8.80;95.00
3069;DHT22;1545;51.728;8.796;2024-02-21T05:21:46;8.80;95.00
3069;DHT22;1545;51.728;8.796;2024-02-21T05:24:12;8.80;94.90
3069;DHT22;1545;51.728;8.796;2024-02-21T05:26:37;8.70;94.90
3069;DHT22;1545;51.728;8.796;2024-02-21T05:29:03;8.70;95.00
3069;DHT22;1545;51.728;8.796;2024-02-21T05:34:16;8.70;95.10
3069;DHT22;1545;51.728;8.796;2024-02-21T05:36:41;8.70;95.20
3069;DHT22;1545;51.728;8.796;2024-02-21T05:39:07;8.70;95.30
3069;DHT22;1545;51.728;8.796;2024-02-21T05:41:32;8.70;95.50
3069;DHT22;1545;51.728;8.796;2024-02-21T05:43:58;8.70;95.30
3069;DHT22;1545;51.728;8.796;2024-02-21T05:46:23;8.70;95.50
3069;DHT22;1545;51.728;8.796;2024-02-21T05:48:49;8.70;95.50
3069;DHT22;1545;51.728;8.796;2024-02-21T05:51:15;8.60;95.30
3069;DHT22;1545;51.728;8.796;2024-02-21T05:53:40;8.60;95.40
3069;DHT22;1545;51.728;8.796;2024-02-21T05:56:13;8.60;95.60
3069;DHT22;1545;51.728;8.796;2024-02-21T05:58:39;8.50;95.80
3069;DHT22;1545;51.728;8.796;2024-02-21T06:01:05;8.50;95.90
3069;DHT22;1545;51.728;8.796;2024-02-21T06:03:32;8.50;95.70
3069;DHT22;1545;51.728;8.796;2024-02-21T06:05:58;8.50;95.80
3069;DHT22;1545;51.728;8.796;2024-02-21T06:08:23;8.50;95.80
3069;DHT22;1545;51.728;8.796;2024-02-21T06:10:49;8.50;95.90
3069;DHT22;1545;51.728;8.796;2024-02-21T06:13:17;8.50;95.90
3069;DHT22;1545;51.728;8.796;2024-02-21T06:15:42;8.50;95.80
3069;DHT22;1545;51.728;8.796;2024-02-21T06:18:08;8.50;95.80
3069;DHT22;1545;51.728;8.796;2024-02-21T06:20:33;8.50;95.80
3069;DHT22;1545;51.728;8.796;2024-02-21T06:23:01;8.50;95.80
3069;DHT22;1545;51.728;8.796;2024-02-21T06:25:26;8.50;95.80
3069;DHT22;1545;51.728;8.796;2024-02-21T06:27:52;8.50;95.80
3069;DHT22;1545;51.728;8.796;2024-02-21T06:30:17;8.50;95.70
3069;DHT22;1545;51.728;8.796;2024-02-21T06:32:43;8.50;95.60
3069;DHT22;1545;51.728;8.796;2024-02-21T06:35:08;8.50;95.60
3069;DHT22;1545;51.728;8.796;2024-02-21T06:37:34;8.60;95.60
3069;DHT22;1545;51.728;8.796;2024-02-21T06:40:00;8.60;95.70
3069;DHT22;1545;51.728;8.796;2024-02-21T06:42:25;8.70;95.10
3069;DHT22;1545;51.728;8.796;2024-02-21T06:44:51;8.80;94.70
3069;DHT22;1545;51.728;8.796;2024-02-21T06:47:17;8.90;94.60
3069;DHT22;1545;51.728;8.796;2024-02-21T06:49:42;9.00;94.50
3069;DHT22;1545;51.728;8.796;2024-02-21T06:52:08;9.00;94.10
3069;DHT22;1545;51.728;8.796;2024-02-21T06:54:33;9.10;93.80
3069;DHT22;1545;51.728;8.796;2024-02-21T06:56:58;9.10;93.90
3069;DHT22;1545;51.728;8.796;2024-02-21T06:59:24;9.00;93.50
3069;DHT22;1545;51.728;8.796;2024-02-21T07:01:53;9.10;93.60
3069;DHT22;1545;51.728;8.796;2024-02-21T07:04:18;9.00;93.80
3069;DHT22;1545;51.728;8.796;2024-02-21T07:06:45;9.10;93.90
3069;DHT22;1545;51.728;8.796;2024-02-21T07:09:10;9.10;93.90
3069;DHT22;1545;51.728;8.796;2024-02-21T07:11:36;9.10;93.70
3069;DHT22;1545;51.728;8.796;2024-02-21T07:14:01;9.10;93.40
3069;DHT22;1545;51.728;8.796;2024-02-21T07:16:27;9.10;93.40
3069;DHT22;1545;51.728;8.796;2024-02-21T07:18:54;9.10;93.40
3069;DHT22;1545;51.728;8.796;2024-02-21T07:21:20;9.20;93.30
3069;DHT22;1545;51.728;8.796;2024-02-21T07:23:45;9.20;93.10
3069;DHT22;1545;51.728;8.796;2024-02-21T07:26:11;9.30;92.90
3069;DHT22;1545;51.728;8.796;2024-02-21T07:28:36;9.30;92.50
3069;DHT22;1545;51.728;8.796;2024-02-21T07:31:03;9.30;92.20
3069;DHT22;1545;51.728;8.796;2024-02-21T07:33:29;9.40;92.10
3069;DHT22;1545;51.728;8.796;2024-02-21T07:35:56;9.40;91.80
3069;DHT22;1545;51.728;8.796;2024-02-21T07:38:21;9.40;91.90
3069;DHT22;1545;51.728;8.796;2024-02-21T07:40:47;9.40;92.00
3069;DHT22;1545;51.728;8.796;2024-02-21T07:43:13;9.50;91.80
3069;DHT22;1545;51.728;8.796;2024-02-21T07:45:38;9.50;91.50
3069;DHT22;1545;51.728;8.796;2024-02-21T07:48:05;9.60;91.20
3069;DHT22;1545;51.728;8.796;2024-02-21T07:50:31;9.60;91.20
3069;DHT22;1545;51.728;8.796;2024-02-21T07:52:56;9.70;91.10
3069;DHT22;1545;51.728;8.796;2024-02-21T07:55:22;9.70;90.60
3069;DHT22;1545;51.728;8.796;2024-02-21T07:57:47;9.80;90.40
3069;DHT22;1545;51.728;8.796;2024-02-21T08:00:13;9.80;90.00
3069;DHT22;1545;51.728;8.796;2024-02-21T08:02:45;9.90;89.90
3069;DHT22;1545;51.728;8.796;2024-02-21T08:05:11;10.00;89.50
3069;DHT22;1545;51.728;8.796;2024-02-21T08:07:37;10.20;89.50
3069;DHT22;1545;51.728;8.796;2024-02-21T08:10:04;10.40;88.90
3069;DHT22;1545;51.728;8.796;2024-02-21T08:12:29;10.40;88.30
3069;DHT22;1545;51.728;8.796;2024-02-21T08:14:55;10.50;88.00
3069;DHT22;1545;51.728;8.796;2024-02-21T08:17:20;10.50;87.70
3069;DHT22;1545;51.728;8.796;2024-02-21T08:19:46;10.50;87.20
3069;DHT22;1545;51.728;8.796;2024-02-21T08:22:13;10.50;87.30
3069;DHT22;1545;51.728;8.796;2024-02-21T08:24:39;10.50;87.30
3069;DHT22;1545;51.728;8.796;2024-02-21T08:27:04;10.50;87.20
3069;DHT22;1545;51.728;8.796;2024-02-21T08:29:30;10.50;86.90
3069;DHT22;1545;51.728;8.796;2024-02-21T08:31:55;10.50;87.20
3069;DHT22;1545;51.728;8.796;2024-02-21T08:34:20;10.50;86.70
3069;DHT22;1545;51.728;8.796;2024-02-21T08:36:46;10.50;86.80
3069;DHT22;1545;51.728;8.796;2024-02-21T08:39:11;10.50;87.10
3069;DHT22;1545;51.728;8.796;2024-02-21T08:41:40;10.60;86.50
3069;DHT22;1545;51.728;8.796;2024-02-21T08:44:06;10.70;86.10
3069;DHT22;1545;51.728;8.796;2024-02-21T08:46:32;10.70;85.40
3069;DHT22;1545;51.728;8.796;2024-02-21T08:48:58;10.80;85.90
3069;DHT22;1545;51.728;8.796;2024-02-21T08:51:23;10.90;85.10
3069;DHT22;1545;51.728;8.796;2024-02-21T08:53:49;11.10;84.30
3069;DHT22;1545;51.728;8.796;2024-02-21T08:56:15;11.20;83.90
3069;DHT22;1545;51.728;8.796;2024-02-21T08:58:41;11.30;83.40
3069;DHT22;1545;51.728;8.796;2024-02-21T09:01:07;11.30;82.70
3069;DHT22;1545;51.728;8.796;2024-02-21T09:03:39;11.40;82.30
3069;DHT22;1545;51.728;8.796;2024-02-21T09:06:09;11.40;81.80
3069;DHT22;1545;51.728;8.796;2024-02-21T09:08:35;11.40;80.80
3069;DHT22;1545;51.728;8.796;2024-02-21T09:11:00;11.30;80.90
3069;DHT22;1545;51.728;8.796;2024-02-21T09:13:29;11.30;81.00
3069;DHT22;1545;51.728;8.796;2024-02-21T09:15:55;11.30;81.00
3069;DHT22;1545;51.728;8.796;2024-02-21T09:18:21;11.40;81.30
3069;DHT22;1545;51.728;8.796;2024-02-21T09:20:46;11.50;81.00
3069;DHT22;1545;51.728;8.796;2024-02-21T09:23:14;11.50;80.70
3069;DHT22;1545;51.728;8.796;2024-02-21T09:25:40;11.40;80.60
3069;DHT22;1545;51.728;8.796;2024-02-21T09:28:06;11.50;80.30
3069;DHT22;1545;51.728;8.796;2024-02-21T09:30:32;11.60;80.30
3069;DHT22;1545;51.728;8.796;2024-02-21T09:32:57;11.40;80.10
3069;DHT22;1545;51.728;8.796;2024-02-21T09:35:25;11.40;80.60
3069;DHT22;1545;51.728;8.796;2024-02-21T09:37:52;11.50;80.30
3069;DHT22;1545;51.728;8.796;2024-02-21T09:40:17;11.50;81.10
3069;DHT22;1545;51.728;8.796;2024-02-21T09:42:44;11.70;81.10
3069;DHT22;1545;51.728;8.796;2024-02-21T09:45:22;11.60;80.50
3069;DHT22;1545;51.728;8.796;2024-02-21T09:50:34;11.70;81.00
3069;DHT22;1545;51.728;8.796;2024-02-21T09:53:00;11.70;80.80
3069;DHT22;1545;51.728;8.796;2024-02-21T09:55:29;11.80;81.30
3069;DHT22;1545;51.728;8.796;2024-02-21T09:57:55;11.90;81.00
3069;DHT22;1545;51.728;8.796;2024-02-21T10:00:22;12.10;80.70
3069;DHT22;1545;51.728;8.796;2024-02-21T10:02:48;12.10;80.50
3069;DHT22;1545;51.728;8.796;2024-02-21T10:05:17;12.20;80.40
3069;DHT22;1545;51.728;8.796;2024-02-21T10:07:43;12.30;80.10
3069;DHT22;1545;51.728;8.796;2024-02-21T10:10:09;12.40;79.80
3069;DHT22;1545;51.728;8.796;2024-02-21T10:12:35;12.40;79.20
3069;DHT22;1545;51.728;8.796;2024-02-21T10:15:05;12.60;79.70
3069;DHT22;1545;51.728;8.796;2024-02-21T10:17:34;12.70;78.60
3069;DHT22;1545;51.728;8.796;2024-02-21T10:20:10;12.60;78.50
3069;DHT22;1545;51.728;8.796;2024-02-21T10:22:37;12.60;79.50
3069;DHT22;1545;51.728;8.796;2024-02-21T10:25:11;12.70;79.10
3069;DHT22;1545;51.728;8.796;2024-02-21T10:27:40;12.70;78.50
3069;DHT22;1545;51.728;8.796;2024-02-21T10:30:08;12.80;78.70
3069;DHT22;1545;51.728;8.796;2024-02-21T10:32:33;12.80;78.50
3069;DHT22;1545;51.728;8.796;2024-02-21T10:35:03;12.90;77.80
3069;DHT22;1545;51.728;8.796;2024-02-21T10:37:32;13.00;78.00
3069;DHT22;1545;51.728;8.796;2024-02-21T10:39:57;13.10;77.70
3069;DHT22;1545;51.728;8.796;2024-02-21T10:42:29;13.20;77.80
3069;DHT22;1545;51.728;8.796;2024-02-21T10:45:00;13.20;77.10
3069;DHT22;1545;51.728;8.796;2024-02-21T10:47:28;13.00;76.40
3069;DHT22;1545;51.728;8.796;2024-02-21T10:50:02;13.10;77.40
3069;DHT22;1545;51.728;8.796;2024-02-21T10:52:52;13.20;77.00
3069;DHT22;1545;51.728;8.796;2024-02-21T10:55:29;13.20;76.20
3069;DHT22;1545;51.728;8.796;2024-02-21T10:57:58;13.10;76.90
3069;DHT22;1545;51.728;8.796;2024-02-21T11:00:26;12.90;77.10
3069;DHT22;1545;51.728;8.796;2024-02-21T11:02:58;12.90;77.30
3069;DHT22;1545;51.728;8.796;2024-02-21T11:05:24;12.90;77.20
3069;DHT22;1545;51.728;8.796;2024-02-21T11:07:51;12.90;77.20
3069;DHT22;1545;51.728;8.796;2024-02-21T11:10:24;13.00;77.90
3069;DHT22;1545;51.728;8.796;2024-02-21T11:13:13;13.00;78.00
3069;DHT22;1545;51.728;8.796;2024-02-21T11:15:39;13.10;77.60
3069;DHT22;1545;51.728;8.796;2024-02-21T11:18:05;13.10;77.60
3069;DHT22;1545;51.728;8.796;2024-02-21T11:20:34;13.20;78.00
3069;DHT22;1545;51.728;8.796;2024-02-21T11:23:00;13.20;78.20
3069;DHT22;1545;51.728;8.796;2024-02-21T11:25:26;13.30;77.70
3069;DHT22;1545;51.728;8.796;2024-02-21T11:28:02;13.30;76.90
3069;DHT22;1545;51.728;8.796;2024-02-21T11:30:31;13.30;77.20
3069;DHT22;1545;51.728;8.796;2024-02-21T11:33:02;13.20;77.40
3069;DHT22;1545;51.728;8.796;2024-02-21T11:35:31;13.20;77.60
3069;DHT22;1545;51.728;8.796;2024-02-21T11:38:10;13.20;78.00
3069;DHT22;1545;51.728;8.796;2024-02-21T11:40:39;13.20;77.30
3069;DHT22;1545;51.728;8.796;2024-02-21T11:43:05;13.20;77.70
3069;DHT22;1545;51.728;8.796;2024-02-21T11:45:31;13.10;77.90
3069;DHT22;1545;51.728;8.796;2024-02-21T11:47:58;13.10;78.10
3069;DHT22;1545;51.728;8.796;2024-02-21T11:50:26;13.10;78.50
3069;DHT22;1545;51.728;8.796;2024-02-21T11:52:54;13.30;78.30
3069;DHT22;1545;51.728;8.796;2024-02-21T11:55:20;13.30;78.00
3069;DHT22;1545;51.728;8.796;2024-02-21T11:57:48;13.30;77.80
3069;DHT22;1545;51.728;8.796;2024-02-21T12:00:20;13.30;78.40
3069;DHT22;1545;51.728;8.796;2024-02-21T12:02:46;13.30;78.40
3069;DHT22;1545;51.728;8.796;2024-02-21T12:05:11;13.30;78.50
3069;DHT22;1545;51.728;8.796;2024-02-21T12:07:37;13.40;78.40
3069;DHT22;1545;51.728;8.796;2024-02-21T12:10:10;13.30;78.70
3069;DHT22;1545;51.728;8.796;2024-02-21T12:12:36;13.30;78.70
3069;DHT22;1545;51.728;8.796;2024-02-21T12:15:03;13.30;79.10
3069;DHT22;1545;51.728;8.796;2024-02-21T12:17:36;13.20;79.40
3069;DHT22;1545;51.728;8.796;2024-02-21T12:20:03;13.10;79.50
3069;DHT22;1545;51.728;8.796;2024-02-21T12:22:38;13.10;79.80
3069;DHT22;1545;51.728;8.796;2024-02-21T12:25:04;13.00;80.20
3069;DHT22;1545;51.728;8.796;2024-02-21T12:27:33;12.90;80.90
3069;DHT22;1545;51.728;8.796;2024-02-21T12:29:58;12.90;81.30
3069;DHT22;1545;51.728;8.796;2024-02-21T12:32:24;12.80;81.70
3069;DHT22;1545;51.728;8.796;2024-02-21T12:34:49;12.70;81.80
3069;DHT22;1545;51.728;8.796;2024-02-21T12:37:14;12.70;82.40
3069;DHT22;1545;51.728;8.796;2024-02-21T12:39:41;12.70;82.20
3069;DHT22;1545;51.728;8.796;2024-02-21T12:42:07;12.70;82.20
3069;DHT22;1545;51.728;8.796;2024-02-21T12:44:32;12.70;82.20
3069;DHT22;1545;51.728;8.796;2024-02-21T12:46:57;12.70;82.10
3069;DHT22;1545;51.728;8.796;2024-02-21T12:49:23;12.80;82.10
3069;DHT22;1545;51.728;8.796;2024-02-21T12:51:49;13.00;81.70
3069;DHT22;1545;51.728;8.796;2024-02-21T12:54:15;13.10;81.80
3069;DHT22;1545;51.728;8.796;2024-02-21T12:56:40;13.40;81.00
3069;DHT22;1545;51.728;8.796;2024-02-21T12:59:06;13.50;80.30
3069;DHT22;1545;51.728;8.796;2024-02-21T13:01:38;13.70;80.30
3069;DHT22;1545;51.728;8.796;2024-02-21T13:04:03;13.70;79.20
3069;DHT22;1545;51.728;8.796;2024-02-21T13:06:29;13.70;78.80
3069;DHT22;1545;51.728;8.796;2024-02-21T13:08:54;13.80;79.00
3069;DHT22;1545;51.728;8.796;2024-02-21T13:11:20;13.80;79.00
3069;DHT22;1545;51.728;8.796;2024-02-21T13:13:45;13.70;78.80
3069;DHT22;1545;51.728;8.796;2024-02-21T13:16:11;13.60;79.20
3069;DHT22;1545;51.728;8.796;2024-02-21T13:18:36;13.60;79.50
3069;DHT22;1545;51.728;8.796;2024-02-21T13:21:04;13.40;79.40
3069;DHT22;1545;51.728;8.796;2024-02-21T13:23:30;13.30;79.70
3069;DHT22;1545;51.728;8.796;2024-02-21T13:25:55;13.20;80.20
3069;DHT22;1545;51.728;8.796;2024-02-21T13:28:21;13.30;80.60
3069;DHT22;1545;51.728;8.796;2024-02-21T13:30:46;13.30;80.50
3069;DHT22;1545;51.728;8.796;2024-02-21T13:33:13;13.20;80.90
3069;DHT22;1545;51.728;8.796;2024-02-21T13:35:38;13.30;81.20
3069;DHT22;1545;51.728;8.796;2024-02-21T13:38:04;13.40;80.80
3069;DHT22;1545;51.728;8.796;2024-02-21T13:40:30;13.50;81.10
3069;DHT22;1545;51.728;8.796;2024-02-21T13:42:56;13.60;80.50
3069;DHT22;1545;51.728;8.796;2024-02-21T13:45:21;13.60;80.30
3069;DHT22;1545;51.728;8.796;2024-02-21T13:47:47;13.70;80.30
3069;DHT22;1545;51.728;8.796;2024-02-21T13:50:13;13.70;79.20
3069;DHT22;1545;51.728;8.796;2024-02-21T13:52:40;13.80;79.30
3069;DHT22;1545;51.728;8.796;2024-02-21T13:55:05;13.80;79.00
3069;DHT22;1545;51.728;8.796;2024-02-21T13:57:34;13.70;78.80
3069;DHT22;1545;51.728;8.796;2024-02-21T14:00:00;13.50;77.40
3069;DHT22;1545;51.728;8.796;2024-02-21T14:02:25;13.40;76.90
3069;DHT22;1545;51.728;8.796;2024-02-21T14:04:51;13.40;76.90
3069;DHT22;1545;51.728;8.796;2024-02-21T14:07:16;13.10;76.90
3069;DHT22;1545;51.728;8.796;2024-02-21T14:09:42;13.10;77.20
3069;DHT22;1545;51.728;8.796;2024-02-21T14:12:08;12.90;77.00
3069;DHT22;1545;51.728;8.796;2024-02-21T14:14:36;12.70;77.60
3069;DHT22;1545;51.728;8.796;2024-02-21T14:17:03;12.70;77.90
3069;DHT22;1545;51.728;8.796;2024-02-21T14:19:29;12.70;79.00
3069;DHT22;1545;51.728;8.796;2024-02-21T14:21:55;12.60;81.90
3069;DHT22;1545;51.728;8.796;2024-02-21T14:24:20;12.40;83.40
3069;DHT22;1545;51.728;8.796;2024-02-21T14:26:46;12.50;83.80
3069;DHT22;1545;51.728;8.796;2024-02-21T14:29:11;12.40;84.30
3069;DHT22;1545;51.728;8.796;2024-02-21T14:31:39;12.20;83.30
3069;DHT22;1545;51.728;8.796;2024-02-21T14:34:04;12.20;82.90
3069;DHT22;1545;51.728;8.796;2024-02-21T14:36:30;11.80;82.10
3069;DHT22;1545;51.728;8.796;2024-02-21T14:38:55;11.60;83.10
3069;DHT22;1545;51.728;8.796;2024-02-21T14:41:21;11.70;83.10
3069;DHT22;1545;51.728;8.796;2024-02-21T14:43:46;11.60;82.90
3069;DHT22;1545;51.728;8.796;2024-02-21T14:46:12;11.50;83.90
3069;DHT22;1545;51.728;8.796;2024-02-21T14:48:38;11.30;84.00
3069;DHT22;1545;51.728;8.796;2024-02-21T14:51:03;11.30;84.60
3069;DHT22;1545;51.728;8.796;2024-02-21T14:53:29;11.30;84.90
3069;DHT22;1545;51.728;8.796;2024-02-21T14:55:55;11.30;85.40
3069;DHT22;1545;51.728;8.796;2024-02-21T14:58:23;11.20;85.40
3069;DHT22;1545;51.728;8.796;2024-02-21T15:00:52;11.20;85.00
3069;DHT22;1545;51.728;8.796;2024-02-21T15:03:17;10.90;85.20
3069;DHT22;1545;51.728;8.796;2024-02-21T15:05:46;10.80;85.20
3069;DHT22;1545;51.728;8.796;2024-02-21T15:08:12;10.70;85.90
3069;DHT22;1545;51.728;8.796;2024-02-21T15:10:39;10.70;85.80
3069;DHT22;1545;51.728;8.796;2024-02-21T15:13:05;10.70;86.40
3069;DHT22;1545;51.728;8.796;2024-02-21T15:15:31;10.60;86.20
3069;DHT22;1545;51.728;8.796;2024-02-21T15:17:56;10.60;86.30
3069;DHT22;1545;51.728;8.796;2024-02-21T15:20:22;10.60;86.00
3069;DHT22;1545;51.728;8.796;2024-02-21T15:22:47;10.50;86.30
3069;DHT22;1545;51.728;8.796;2024-02-21T15:25:14;10.50;86.50
3069;DHT22;1545;51.728;8.796;2024-02-21T15:27:44;10.60;86.40
3069;DHT22;1545;51.728;8.796;2024-02-21T15:30:10;10.50;85.70
3069;DHT22;1545;51.728;8.796;2024-02-21T15:32:36;10.40;86.20
3069;DHT22;1545;51.728;8.796;2024-02-21T15:35:05;10.40;86.70
3069;DHT22;1545;51.728;8.796;2024-02-21T15:37:32;10.40;86.70
3069;DHT22;1545;51.728;8.796;2024-02-21T15:39:58;10.50;86.70
3069;DHT22;1545;51.728;8.796;2024-02-21T15:42:23;10.40;86.70
3069;DHT22;1545;51.728;8.796;2024-02-21T15:44:49;10.40;86.40
3069;DHT22;1545;51.728;8.796;2024-02-21T15:47:14;10.30;86.30
3069;DHT22;1545;51.728;8.796;2024-02-21T15:49:41;10.20;86.70
3069;DHT22;1545;51.728;8.796;2024-02-21T15:52:07;10.20;87.10
3069;DHT22;1545;51.728;8.796;2024-02-21T15:54:32;10.10;87.60
3069;DHT22;1545;51.728;8.796;2024-02-21T15:56:57;10.20;87.50
3069;DHT22;1545;51.728;8.796;2024-02-21T15:59:23;10.10;87.50
3069;DHT22;1545;51.728;8.796;2024-02-21T16:01:49;10.20;87.50
3069;DHT22;1545;51.728;8.796;2024-02-21T16:04:15;10.20;87.70
3069;DHT22;1545;51.728;8.796;2024-02-21T16:06:40;10.10;87.90
3069;DHT22;1545;51.728;8.796;2024-02-21T16:09:08;10.00;88.00